Time;durP1;ratioP1;P1;durP2;ratioP2;P2;SDS_P1;SDS_P2;PMS_P1;PMS_P2;Temp;Humidity;BMP_temperature;BMP_pressure;BME280_temperature;BME280_humidity;BME280_pressure;Samples;Min_cycle;Max_cycle;Signal;HPM_P1;HPM_P2
2022/11/28 00:01:25;;;;;;;14.88;8.25;;;6.20;99.90;;;;;;5032082;28;20414;-73
2022/11/28 00:03:51;;;;;;;13.60;8.70;;;6.20;99.90;;;;;;5025856;28;20405;-73
2022/11/28 00:06:17;;;;;;;14.03;8.73;;;6.10;99.90;;;;;;5026014;28;20411;-73
2022/11/28 00:08:43;;;;;;;13.05;7.90;;;6.20;99.90;;;;;;5018879;28;20418;-73
2022/11/28 00:11:11;;;;;;;11.52;7.55;;;6.20;99.90;;;;;;5033013;28;20816;-73
2022/11/28 00:13:36;;;;;;;11.35;7.35;;;6.20;99.90;;;;;;5036185;28;20410;-73
2022/11/28 00:16:04;;;;;;;10.47;7.30;;;6.20;99.90;;;;;;5030409;28;20439;-73
2022/11/28 00:18:31;;;;;;;10.43;6.90;;;6.20;99.90;;;;;;5013838;28;20407;-73
2022/11/28 00:21:05;;;;;;;10.13;6.47;;;6.20;99.90;;;;;;5045826;28;20756;-73
2022/11/28 00:23:32;;;;;;;9.30;6.47;;;6.20;99.90;;;;;;5040404;28;20505;-73
2022/11/28 00:26:04;;;;;;;9.37;6.23;;;6.20;99.90;;;;;;5027113;28;20933;-73
2022/11/28 00:28:29;;;;;;;9.57;6.57;;;6.20;99.90;;;;;;5031435;28;20948;-74
2022/11/28 00:30:55;;;;;;;8.57;6.00;;;6.20;99.90;;;;;;5044240;28;20414;-74
2022/11/28 00:33:21;;;;;;;9.30;5.90;;;6.20;99.90;;;;;;5042351;28;20484;-74
2022/11/28 00:35:47;;;;;;;9.20;5.60;;;6.20;99.90;;;;;;5049741;28;20957;-74
2022/11/28 00:38:13;;;;;;;8.45;5.35;;;6.20;99.90;;;;;;5023031;28;20405;-74
2022/11/28 00:40:38;;;;;;;9.50;5.28;;;6.30;99.90;;;;;;5019301;28;20490;-74
2022/11/28 00:43:04;;;;;;;8.70;5.00;;;6.30;99.90;;;;;;5013498;28;20408;-73
2022/11/28 00:45:30;;;;;;;7.43;5.10;;;6.30;99.90;;;;;;5025834;28;20403;-74
2022/11/28 00:47:55;;;;;;;8.97;5.80;;;6.30;99.90;;;;;;5034671;28;20402;-74
2022/11/28 00:50:21;;;;;;;7.83;5.20;;;6.30;99.90;;;;;;5033727;28;20433;-74
2022/11/28 00:52:46;;;;;;;9.80;5.60;;;6.30;99.90;;;;;;5030585;28;20438;-74
2022/11/28 00:55:12;;;;;;;9.33;5.67;;;6.30;99.90;;;;;;5012947;28;20482;-74
2022/11/28 00:57:38;;;;;;;9.48;6.00;;;6.30;99.90;;;;;;5030181;28;20403;-74
2022/11/28 01:00:05;;;;;;;10.67;6.00;;;6.30;99.90;;;;;;5034397;28;20455;-74
2022/11/28 01:02:30;;;;;;;8.77;5.82;;;6.30;99.90;;;;;;5050795;28;20417;-74
2022/11/28 01:04:56;;;;;;;9.25;6.20;;;6.30;99.90;;;;;;5022198;28;20415;-74
2022/11/28 01:07:21;;;;;;;8.83;6.30;;;6.30;99.90;;;;;;5022773;28;20421;-74
2022/11/28 01:09:47;;;;;;;10.73;6.95;;;6.30;99.90;;;;;;5027373;28;20822;-74
2022/11/28 01:12:13;;;;;;;9.93;6.33;;;6.30;99.90;;;;;;5040417;28;20405;-74
2022/11/28 01:14:38;;;;;;;10.60;7.00;;;6.30;99.90;;;;;;5019024;28;20809;-74
2022/11/28 01:17:04;;;;;;;12.13;7.50;;;6.30;99.90;;;;;;5048827;28;20408;-74
2022/11/28 01:19:29;;;;;;;11.18;7.47;;;6.30;99.90;;;;;;5050409;28;20810;-74
2022/11/28 01:21:55;;;;;;;11.50;6.87;;;6.30;99.90;;;;;;5024597;28;20409;-74
2022/11/28 01:24:20;;;;;;;10.63;6.67;;;6.30;99.90;;;;;;5049859;28;20417;-74
2022/11/28 01:26:46;;;;;;;10.40;7.33;;;6.30;99.90;;;;;;5050595;28;20432;-74
2022/11/28 01:29:12;;;;;;;12.27;7.40;;;6.30;99.90;;;;;;5041265;28;20398;-73
2022/11/28 01:31:38;;;;;;;11.75;7.13;;;6.30;99.90;;;;;;5048614;28;20406;-74
2022/11/28 01:34:04;;;;;;;10.60;7.30;;;6.30;99.90;;;;;;5036265;28;20485;-74
2022/11/28 01:36:30;;;;;;;11.45;7.07;;;6.30;99.90;;;;;;5048222;28;20998;-74
2022/11/28 01:38:55;;;;;;;11.63;6.97;;;6.30;99.90;;;;;;5034124;28;20401;-74
2022/11/28 01:41:24;;;;;;;12.50;7.57;;;6.30;99.90;;;;;;5028723;28;20453;-74
2022/11/28 01:44:13;;;;;;;11.55;7.40;;;6.40;99.90;;;;;;5028651;28;20442;-74
2022/11/28 01:46:39;;;;;;;11.18;7.85;;;6.40;99.90;;;;;;5029353;28;20415;-74
2022/11/28 01:49:16;;;;;;;13.07;7.82;;;6.40;99.90;;;;;;5030359;28;20453;-74
2022/11/28 01:51:46;;;;;;;11.50;7.50;;;6.40;99.90;;;;;;5012465;28;20411;-74
2022/11/28 01:54:14;;;;;;;11.48;7.72;;;6.40;99.90;;;;;;5029545;28;20948;-74
2022/11/28 01:56:50;;;;;;;10.88;7.43;;;6.40;99.90;;;;;;5013998;28;20411;-74
2022/11/28 01:59:18;;;;;;;11.38;7.75;;;6.40;99.90;;;;;;5047709;28;20417;-74
2022/11/28 02:01:45;;;;;;;9.63;7.13;;;6.40;99.90;;;;;;5031257;28;20399;-74
2022/11/28 02:04:12;;;;;;;11.00;7.45;;;6.40;99.90;;;;;;4995848;28;20461;-74
2022/11/28 02:06:39;;;;;;;13.77;7.95;;;6.40;99.90;;;;;;5024473;28;20419;-74
2022/11/28 02:09:10;;;;;;;11.88;7.57;;;6.40;99.90;;;;;;5028881;28;20413;-74
2022/11/28 02:12:09;;;;;;;12.73;7.88;;;6.40;99.90;;;;;;5018445;28;20518;-74
2022/11/28 02:15:16;;;;;;;11.98;8.10;;;6.40;99.90;;;;;;4995596;28;20793;-74
2022/11/28 02:17:51;;;;;;;12.50;8.68;;;6.40;99.90;;;;;;5042804;28;20443;-74
2022/11/28 02:20:44;;;;;;;11.68;8.40;;;6.40;99.90;;;;;;5038444;28;20416;-74
2022/11/28 02:23:36;;;;;;;13.20;8.50;;;6.40;99.90;;;;;;5016294;28;20464;-73
2022/11/28 02:26:43;;;;;;;15.07;9.13;;;6.40;99.90;;;;;;4989448;28;20546;-73
2022/11/28 02:29:33;;;;;;;15.15;9.70;;;6.40;99.90;;;;;;4979207;28;20785;-74
2022/11/28 02:32:13;;;;;;;16.10;10.18;;;6.40;99.90;;;;;;5041634;28;20428;-74
2022/11/28 02:34:55;;;;;;;16.50;10.23;;;6.40;99.90;;;;;;5011254;28;20864;-74
2022/11/28 02:37:35;;;;;;;17.92;10.68;;;6.40;99.90;;;;;;5028854;28;20422;-74
2022/11/28 02:40:25;;;;;;;17.17;10.50;;;6.40;99.90;;;;;;5038769;28;20429;-74
2022/11/28 02:43:04;;;;;;;17.23;11.30;;;6.30;99.90;;;;;;5011329;28;20465;-74
2022/11/28 02:45:35;;;;;;;18.47;11.83;;;6.30;99.90;;;;;;5044878;28;20417;-74
2022/11/28 02:48:06;;;;;;;18.85;12.23;;;6.30;99.90;;;;;;5024274;28;20421;-74
2022/11/28 02:50:57;;;;;;;22.17;12.57;;;6.40;99.90;;;;;;5048526;28;20405;-73
2022/11/28 02:53:26;;;;;;;23.20;13.33;;;6.30;99.90;;;;;;5026568;28;20419;-73
2022/11/28 02:55:52;;;;;;;21.23;13.02;;;6.30;99.90;;;;;;5031392;28;20470;-74
2022/11/28 02:58:17;;;;;;;24.55;13.30;;;6.30;99.90;;;;;;5045491;28;20847;-74
2022/11/28 03:00:45;;;;;;;23.63;14.13;;;6.30;99.90;;;;;;5037078;28;20398;-74
2022/11/28 03:03:20;;;;;;;24.48;14.75;;;6.30;99.90;;;;;;5032543;28;20411;-74
2022/11/28 03:05:50;;;;;;;24.65;14.13;;;6.30;99.90;;;;;;5024421;28;20481;-74
2022/11/28 03:08:28;;;;;;;24.02;14.30;;;6.30;99.90;;;;;;5026741;28;20413;-73
2022/11/28 03:10:57;;;;;;;26.15;14.88;;;6.30;99.90;;;;;;5047651;28;20804;-73
2022/11/28 03:13:31;;;;;;;23.63;14.30;;;6.30;99.90;;;;;;5018692;28;20421;-74
2022/11/28 03:16:12;;;;;;;24.55;14.20;;;6.30;99.90;;;;;;5011319;28;20431;-74
2022/11/28 03:19:06;;;;;;;24.38;14.13;;;6.30;99.90;;;;;;5000020;28;20938;-73
2022/11/28 03:21:39;;;;;;;22.80;14.48;;;6.30;99.90;;;;;;5040934;28;20405;-74
2022/11/28 03:24:18;;;;;;;20.87;13.23;;;6.30;99.90;;;;;;5034031;28;20413;-74
2022/11/28 03:27:08;;;;;;;21.17;13.18;;;6.40;99.90;;;;;;5039282;28;20494;-74
2022/11/28 03:29:41;;;;;;;20.27;13.05;;;6.30;99.90;;;;;;5006808;28;20446;-74
2022/11/28 03:32:11;;;;;;;21.95;13.57;;;6.30;99.90;;;;;;5029326;28;21270;-74
2022/11/28 03:34:43;;;;;;;21.40;13.52;;;6.40;99.90;;;;;;5015999;28;20489;-74
2022/11/28 03:37:28;;;;;;;23.92;14.45;;;6.40;99.90;;;;;;5023389;28;20455;-74
2022/11/28 03:40:04;;;;;;;23.00;14.20;;;6.40;99.90;;;;;;5028335;28;20414;-73
2022/11/28 03:42:35;;;;;;;24.73;14.85;;;6.40;99.90;;;;;;5046528;28;21204;-74
2022/11/28 03:45:12;;;;;;;22.23;14.00;;;6.40;99.90;;;;;;5047654;28;20822;-73
2022/11/28 03:47:43;;;;;;;21.92;14.60;;;6.40;99.90;;;;;;5028182;28;20413;-73
2022/11/28 03:50:19;;;;;;;27.48;15.30;;;6.40;99.90;;;;;;5024907;28;20421;-73
2022/11/28 03:53:08;;;;;;;23.10;14.27;;;6.40;99.90;;;;;;5037399;28;20406;-74
2022/11/28 03:55:59;;;;;;;23.67;14.30;;;6.40;99.90;;;;;;5033700;28;21021;-74
2022/11/28 03:58:48;;;;;;;26.20;14.75;;;6.40;99.90;;;;;;5032123;28;20988;-74
2022/11/28 04:01:22;;;;;;;23.55;14.52;;;6.40;99.90;;;;;;5007814;28;20499;-73
2022/11/28 04:04:04;;;;;;;22.38;14.38;;;6.40;99.90;;;;;;5037270;28;20415;-74
2022/11/28 04:07:17;;;;;;;23.73;13.93;;;6.50;99.90;;;;;;5019956;28;20506;-74
2022/11/28 04:10:04;;;;;;;22.85;14.23;;;6.50;99.90;;;;;;4985762;28;20438;-73
2022/11/28 04:12:39;;;;;;;21.50;14.00;;;6.50;99.90;;;;;;5010213;28;20813;-73
2022/11/28 04:15:32;;;;;;;23.23;14.35;;;6.50;99.90;;;;;;5034685;28;20513;-73
2022/11/28 04:18:18;;;;;;;25.05;15.25;;;6.60;99.90;;;;;;5012999;28;20911;-74
2022/11/28 04:21:00;;;;;;;21.85;14.73;;;6.50;99.90;;;;;;5009969;28;20415;-74
2022/11/28 04:23:28;;;;;;;20.73;14.13;;;6.60;99.90;;;;;;5028241;28;20415;-74
2022/11/28 04:25:59;;;;;;;24.13;15.73;;;6.60;99.90;;;;;;5037435;28;21212;-73
2022/11/28 04:28:28;;;;;;;21.60;14.73;;;6.60;99.90;;;;;;5030440;28;20422;-74
2022/11/28 04:30:58;;;;;;;24.00;15.30;;;6.60;99.90;;;;;;5022825;28;20488;-73
2022/11/28 04:33:27;;;;;;;25.93;15.27;;;6.70;99.90;;;;;;5050466;28;20410;-73
2022/11/28 04:35:55;;;;;;;22.88;15.18;;;6.70;99.90;;;;;;5044581;28;20461;-74
2022/11/28 04:38:23;;;;;;;24.80;15.13;;;6.70;99.90;;;;;;5050611;28;20409;-73
2022/11/28 04:41:14;;;;;;;22.52;14.05;;;6.70;99.90;;;;;;5013775;28;20407;-74
2022/11/28 04:43:59;;;;;;;21.08;14.38;;;6.70;99.90;;;;;;5030328;28;20440;-74
2022/11/28 04:46:31;;;;;;;23.73;15.18;;;6.70;99.90;;;;;;5009013;28;20414;-73
2022/11/28 04:48:57;;;;;;;25.15;15.43;;;6.70;99.90;;;;;;5049627;28;20408;-74
2022/11/28 04:51:50;;;;;;;22.15;14.88;;;6.80;99.90;;;;;;5050522;28;20457;-73
2022/11/28 04:54:25;;;;;;;24.25;14.43;;;6.70;99.90;;;;;;5030196;28;20482;-73
2022/11/28 04:57:03;;;;;;;24.48;15.27;;;6.70;99.90;;;;;;5037715;28;20505;-74
2022/11/28 04:59:31;;;;;;;22.08;15.32;;;6.80;99.90;;;;;;5013729;28;20415;-73
2022/11/28 05:02:00;;;;;;;22.13;15.18;;;6.80;99.90;;;;;;5018220;28;20444;-73
2022/11/28 05:04:26;;;;;;;26.17;14.85;;;6.80;99.90;;;;;;5031854;28;20413;-74
2022/11/28 05:07:01;;;;;;;26.43;15.93;;;6.80;99.90;;;;;;5013527;28;20403;-73
2022/11/28 05:09:26;;;;;;;25.35;16.13;;;6.80;99.90;;;;;;5000627;28;20759;-74
2022/11/28 05:11:52;;;;;;;26.93;16.87;;;6.80;99.90;;;;;;5030777;28;20411;-74
2022/11/28 05:14:18;;;;;;;29.93;18.07;;;6.80;99.90;;;;;;4981038;28;20485;-74
2022/11/28 05:16:43;;;;;;;26.53;17.60;;;6.80;99.90;;;;;;5030372;28;20410;-74
2022/11/28 05:19:09;;;;;;;27.50;17.63;;;6.90;99.90;;;;;;5017393;28;20409;-73
2022/11/28 05:21:34;;;;;;;30.23;18.95;;;6.90;99.90;;;;;;5029893;28;20406;-74
2022/11/28 05:24:00;;;;;;;28.43;17.97;;;6.80;99.90;;;;;;5024545;28;20434;-74
2022/11/28 05:26:26;;;;;;;30.65;19.38;;;6.90;99.90;;;;;;5023579;28;20752;-74
2022/11/28 05:28:51;;;;;;;29.90;18.53;;;6.90;99.90;;;;;;5023446;28;20920;-73
2022/11/28 05:31:19;;;;;;;31.20;19.45;;;6.90;99.90;;;;;;5024225;28;20915;-74
2022/11/28 05:33:45;;;;;;;31.15;20.02;;;6.90;99.90;;;;;;5030241;28;21114;-73
2022/11/28 05:36:12;;;;;;;31.37;19.77;;;6.90;99.90;;;;;;5004724;28;20438;-73
2022/11/28 05:38:38;;;;;;;30.65;20.00;;;6.90;99.90;;;;;;5022749;28;20475;-73
2022/11/28 05:41:04;;;;;;;34.03;20.50;;;6.90;99.90;;;;;;5029866;28;20427;-73
2022/11/28 05:43:30;;;;;;;35.92;21.98;;;6.90;99.90;;;;;;5010897;28;20473;-73
2022/11/28 05:45:56;;;;;;;34.23;21.13;;;7.00;99.90;;;;;;5027866;28;20399;-73
2022/11/28 05:48:22;;;;;;;36.07;22.27;;;7.00;99.90;;;;;;5018556;28;20437;-73
2022/11/28 05:50:51;;;;;;;37.72;23.20;;;7.00;99.90;;;;;;5011794;28;20955;-74
2022/11/28 05:53:18;;;;;;;39.78;23.38;;;7.00;99.90;;;;;;5011531;28;20403;-74
2022/11/28 05:55:44;;;;;;;39.88;24.17;;;7.00;99.90;;;;;;5001792;28;20438;-73
2022/11/28 05:58:09;;;;;;;41.53;24.55;;;7.00;99.90;;;;;;5023539;28;20403;-73
2022/11/28 06:00:35;;;;;;;45.70;25.17;;;7.00;99.90;;;;;;5028823;28;20427;-74
2022/11/28 06:03:02;;;;;;;41.67;25.67;;;7.00;99.90;;;;;;5003623;28;20413;-74
2022/11/28 06:05:28;;;;;;;44.83;26.60;;;7.00;99.90;;;;;;5029247;28;20399;-73
2022/11/28 06:07:53;;;;;;;43.55;26.70;;;7.00;99.90;;;;;;5018522;28;20409;-74
2022/11/28 06:10:21;;;;;;;44.97;27.43;;;7.10;99.90;;;;;;5012893;28;20425;-73
2022/11/28 06:12:47;;;;;;;45.90;26.23;;;7.10;99.90;;;;;;5029871;28;20493;-74
2022/11/28 06:15:13;;;;;;;45.47;27.15;;;7.10;99.90;;;;;;5029145;28;20517;-73
2022/11/28 06:17:39;;;;;;;46.42;27.67;;;7.10;99.90;;;;;;5012457;28;20418;-73
2022/11/28 06:20:06;;;;;;;45.73;26.90;;;7.10;99.90;;;;;;5049209;28;20406;-74
2022/11/28 06:22:32;;;;;;;45.58;27.35;;;7.10;99.90;;;;;;5047806;28;20398;-74
2022/11/28 06:24:57;;;;;;;44.57;27.20;;;7.10;99.90;;;;;;5040622;28;20495;-73
2022/11/28 06:27:23;;;;;;;48.17;27.13;;;7.10;99.90;;;;;;5013753;28;20414;-73
2022/11/28 06:29:48;;;;;;;49.03;27.40;;;7.10;99.90;;;;;;5049497;28;20780;-73
2022/11/28 06:32:14;;;;;;;47.45;28.05;;;7.10;99.90;;;;;;5029126;28;20425;-73
2022/11/28 06:34:40;;;;;;;47.27;28.40;;;7.20;99.90;;;;;;5020934;28;20428;-74
2022/11/28 06:37:05;;;;;;;49.45;28.08;;;7.20;99.90;;;;;;5047890;28;20398;-73
2022/11/28 06:39:31;;;;;;;51.47;28.83;;;7.20;99.90;;;;;;5014836;28;21036;-74
2022/11/28 06:41:57;;;;;;;48.47;28.83;;;7.20;99.90;;;;;;5040114;28;20422;-73
2022/11/28 06:44:22;;;;;;;48.13;28.63;;;7.20;99.90;;;;;;5028930;28;20467;-73
2022/11/28 06:46:48;;;;;;;51.50;29.17;;;7.20;99.90;;;;;;5042395;28;20467;-74
2022/11/28 06:49:13;;;;;;;50.20;29.45;;;7.20;99.90;;;;;;5026421;28;20777;-73
2022/11/28 06:51:40;;;;;;;50.63;29.83;;;7.30;99.90;;;;;;5012266;28;20403;-74
2022/11/28 06:54:06;;;;;;;51.72;30.25;;;7.30;99.90;;;;;;5025504;28;20432;-74
2022/11/28 06:56:32;;;;;;;55.35;30.92;;;7.30;99.90;;;;;;5024313;28;20577;-74
2022/11/28 06:58:59;;;;;;;53.78;30.33;;;7.30;99.90;;;;;;5012891;28;20554;-74
2022/11/28 07:01:27;;;;;;;54.63;31.70;;;7.30;99.90;;;;;;5029238;28;20467;-74
2022/11/28 07:03:53;;;;;;;55.53;31.55;;;7.40;99.90;;;;;;5025155;28;20825;-74
2022/11/28 07:06:20;;;;;;;57.05;32.85;;;7.40;99.90;;;;;;5017603;28;20485;-74
2022/11/28 07:08:47;;;;;;;59.65;32.10;;;7.40;99.90;;;;;;5027113;28;20928;-74
2022/11/28 07:11:16;;;;;;;53.65;32.35;;;7.40;99.90;;;;;;4997408;28;20424;-74
2022/11/28 07:13:44;;;;;;;54.35;33.08;;;7.40;99.90;;;;;;5026806;28;20418;-74
2022/11/28 07:16:15;;;;;;;57.80;33.05;;;7.40;99.90;;;;;;5011674;28;20447;-74
2022/11/28 07:18:41;;;;;;;54.30;32.65;;;7.50;99.90;;;;;;5029343;28;20932;-74
2022/11/28 07:21:07;;;;;;;58.57;32.70;;;7.40;99.90;;;;;;5038796;28;20425;-74
2022/11/28 07:23:33;;;;;;;53.03;32.50;;;7.50;99.90;;;;;;5010684;28;20411;-74
2022/11/28 07:26:00;;;;;;;57.25;32.67;;;7.50;99.90;;;;;;5029166;28;20425;-74
2022/11/28 07:28:26;;;;;;;55.78;32.85;;;7.50;99.90;;;;;;5033361;28;20407;-74
2022/11/28 07:31:04;;;;;;;55.17;32.67;;;7.50;99.90;;;;;;5030956;28;20417;-74
2022/11/28 07:33:30;;;;;;;54.78;32.30;;;7.50;99.90;;;;;;5032499;28;20467;-74
2022/11/28 07:36:09;;;;;;;48.90;31.50;;;7.50;99.90;;;;;;5040238;28;20472;-74
2022/11/28 07:38:34;;;;;;;53.97;31.45;;;7.50;99.90;;;;;;5012940;28;20430;-74
2022/11/28 07:41:08;;;;;;;47.92;30.45;;;7.50;99.90;;;;;;5012162;28;20411;-74
2022/11/28 07:43:34;;;;;;;48.83;30.10;;;7.60;99.90;;;;;;5030067;28;20429;-74
2022/11/28 07:46:06;;;;;;;47.10;29.87;;;7.60;99.90;;;;;;5029892;28;21692;-74
2022/11/28 07:48:33;;;;;;;46.53;29.85;;;7.60;99.90;;;;;;5012822;28;20454;-74
2022/11/28 07:50:58;;;;;;;45.50;28.75;;;7.60;99.90;;;;;;5037778;28;20407;-74
2022/11/28 07:53:24;;;;;;;47.83;28.38;;;7.60;99.90;;;;;;5032855;28;20867;-73
2022/11/28 07:55:50;;;;;;;46.47;28.60;;;7.60;99.90;;;;;;4997117;28;20829;-74
2022/11/28 07:58:15;;;;;;;42.67;28.42;;;7.60;99.90;;;;;;5031313;28;20441;-74
2022/11/28 08:00:41;;;;;;;47.10;28.43;;;7.60;99.90;;;;;;5037941;28;20775;-74
2022/11/28 08:03:06;;;;;;;45.55;28.52;;;7.60;99.90;;;;;;5028802;28;20445;-74
2022/11/28 08:05:32;;;;;;;45.20;28.00;;;7.60;99.90;;;;;;5023795;28;20942;-72
2022/11/28 08:07:58;;;;;;;48.13;27.92;;;7.60;99.90;;;;;;5033033;28;20432;-73
2022/11/28 08:10:24;;;;;;;46.28;27.48;;;7.60;99.90;;;;;;4993790;28;20437;-74
2022/11/28 08:12:49;;;;;;;46.23;27.23;;;7.60;99.90;;;;;;4983968;28;20420;-74
2022/11/28 08:15:15;;;;;;;46.53;26.58;;;7.60;99.90;;;;;;5020196;28;20797;-73
2022/11/28 08:17:41;;;;;;;43.97;26.80;;;7.60;99.90;;;;;;4999765;28;20473;-73
2022/11/28 08:20:07;;;;;;;42.90;25.80;;;7.60;99.90;;;;;;5011794;28;20405;-73
2022/11/28 08:22:33;;;;;;;43.55;25.60;;;7.70;99.90;;;;;;5011420;28;20411;-73
2022/11/28 08:24:58;;;;;;;41.97;25.90;;;7.60;99.90;;;;;;5011320;28;20413;-73
2022/11/28 08:27:24;;;;;;;39.30;25.25;;;7.60;99.90;;;;;;5011277;28;20408;-73
2022/11/28 08:29:50;;;;;;;40.43;24.60;;;7.60;99.90;;;;;;5008764;28;20422;-73
2022/11/28 08:32:15;;;;;;;39.75;24.10;;;7.70;99.90;;;;;;5002487;28;20940;-73
2022/11/28 08:34:41;;;;;;;41.57;23.90;;;7.70;99.90;;;;;;5013555;28;20490;-73
2022/11/28 08:37:06;;;;;;;40.35;24.63;;;7.70;99.90;;;;;;5018329;28;20436;-73
2022/11/28 08:39:32;;;;;;;39.93;24.53;;;7.70;99.90;;;;;;5023347;28;20457;-72
2022/11/28 08:41:58;;;;;;;37.63;22.70;;;7.70;99.90;;;;;;5009270;28;20843;-73
2022/11/28 08:44:26;;;;;;;38.90;23.20;;;7.70;99.90;;;;;;5011865;28;20404;-73
2022/11/28 08:46:52;;;;;;;39.78;22.95;;;7.70;99.90;;;;;;5007748;28;20796;-73
2022/11/28 08:49:18;;;;;;;38.47;22.38;;;7.70;99.90;;;;;;5013412;28;20411;-73
2022/11/28 08:51:44;;;;;;;42.67;23.20;;;7.70;99.90;;;;;;4999399;28;20470;-73
2022/11/28 08:54:09;;;;;;;38.87;22.63;;;7.70;99.90;;;;;;5026367;28;20409;-73
2022/11/28 08:56:35;;;;;;;40.03;22.40;;;7.70;99.90;;;;;;5009017;28;20435;-74
2022/11/28 08:59:00;;;;;;;41.93;23.37;;;7.70;99.90;;;;;;5029440;28;20452;-73
2022/11/28 09:01:26;;;;;;;43.15;22.70;;;7.70;99.90;;;;;;5000250;28;20775;-73
2022/11/28 09:03:53;;;;;;;40.75;22.17;;;7.70;99.90;;;;;;5021772;28;20514;-73
2022/11/28 09:06:19;;;;;;;40.85;22.25;;;7.70;99.90;;;;;;5007796;28;20395;-73
2022/11/28 09:08:46;;;;;;;42.07;21.80;;;7.80;99.90;;;;;;5026390;28;20411;-73
2022/11/28 09:11:14;;;;;;;39.00;21.93;;;7.70;99.90;;;;;;4997219;28;20565;-73
2022/11/28 09:13:40;;;;;;;33.03;19.63;;;7.80;99.90;;;;;;5033975;28;20498;-72
2022/11/28 09:16:07;;;;;;;34.03;19.42;;;7.80;99.90;;;;;;5016977;28;20438;-73
2022/11/28 09:18:32;;;;;;;34.55;19.63;;;7.80;99.90;;;;;;5029186;28;21417;-73
2022/11/28 09:21:08;;;;;;;37.10;19.02;;;7.80;99.90;;;;;;5014638;28;20494;-72
2022/11/28 09:23:34;;;;;;;34.20;18.88;;;7.80;99.90;;;;;;5040467;28;20438;-73
2022/11/28 09:26:00;;;;;;;32.80;18.45;;;7.80;99.90;;;;;;5027503;28;20420;-74
2022/11/28 09:28:27;;;;;;;34.73;18.90;;;7.80;99.90;;;;;;5050106;28;20401;-73
2022/11/28 09:31:10;;;;;;;33.78;18.63;;;7.80;99.90;;;;;;5033412;28;20773;-73
2022/11/28 09:33:35;;;;;;;36.17;19.38;;;7.80;99.90;;;;;;5013551;28;20490;-74
2022/11/28 09:36:07;;;;;;;37.42;19.42;;;7.80;99.90;;;;;;5019196;28;20429;-74
2022/11/28 09:38:33;;;;;;;35.28;19.52;;;7.80;99.90;;;;;;5043804;28;20926;-73
2022/11/28 09:41:00;;;;;;;33.00;18.08;;;7.80;99.90;;;;;;5027725;28;20542;-73
2022/11/28 09:43:37;;;;;;;33.97;18.75;;;7.80;99.90;;;;;;5027291;28;20418;-73
2022/11/28 09:46:06;;;;;;;34.27;19.43;;;7.80;99.90;;;;;;5031469;28;20486;-73
2022/11/28 09:48:33;;;;;;;38.17;19.23;;;7.90;99.90;;;;;;5036511;28;20958;-73
2022/11/28 09:51:23;;;;;;;36.25;18.75;;;7.80;99.90;;;;;;5039051;28;20435;-72
2022/11/28 09:54:15;;;;;;;35.20;18.40;;;7.90;99.90;;;;;;5032827;28;20422;-73
2022/11/28 09:56:44;;;;;;;30.65;17.70;;;7.90;99.90;;;;;;5048690;28;20439;-73
2022/11/28 09:59:21;;;;;;;32.47;17.27;;;7.90;99.90;;;;;;5037863;28;20486;-73
2022/11/28 10:01:54;;;;;;;30.10;17.02;;;7.90;99.90;;;;;;5012871;28;20789;-73
2022/11/28 10:04:38;;;;;;;32.90;16.33;;;7.90;99.90;;;;;;5019972;28;20931;-73
2022/11/28 10:07:19;;;;;;;30.70;16.45;;;7.90;99.90;;;;;;5032420;28;20928;-73
2022/11/28 10:10:13;;;;;;;31.95;16.10;;;8.00;99.90;;;;;;5030939;28;20450;-73
2022/11/28 10:12:45;;;;;;;28.33;15.63;;;7.90;99.90;;;;;;5029990;28;20419;-73
2022/11/28 10:15:29;;;;;;;30.85;16.55;;;7.90;99.90;;;;;;5033601;28;20485;-73
2022/11/28 10:18:15;;;;;;;26.63;14.98;;;7.90;99.90;;;;;;5006461;28;20944;-73
2022/11/28 10:20:44;;;;;;;28.17;15.50;;;8.00;99.90;;;;;;5029743;28;20461;-73
2022/11/28 10:23:20;;;;;;;30.83;15.40;;;8.00;99.90;;;;;;5024163;28;20431;-73
2022/11/28 10:25:52;;;;;;;30.10;15.32;;;8.00;99.90;;;;;;4998168;28;20418;-73
2022/11/28 10:28:24;;;;;;;23.95;13.02;;;8.00;99.90;;;;;;5048088;28;20435;-73
2022/11/28 10:30:59;;;;;;;24.67;12.80;;;8.00;99.90;;;;;;5036578;28;20932;-73
2022/11/28 10:33:49;;;;;;;25.43;13.40;;;8.00;99.90;;;;;;5028138;28;20418;-73
2022/11/28 10:36:25;;;;;;;26.50;14.07;;;8.00;99.90;;;;;;5036125;28;20472;-73
2022/11/28 10:38:51;;;;;;;27.88;14.52;;;8.00;99.90;;;;;;5046124;28;20406;-74
2022/11/28 10:41:27;;;;;;;29.15;15.13;;;8.00;99.90;;;;;;5038589;28;20413;-73
2022/11/28 10:44:10;;;;;;;27.63;14.17;;;8.00;99.90;;;;;;5025053;28;20916;-73
2022/11/28 10:46:53;;;;;;;24.48;13.75;;;8.00;99.90;;;;;;4995143;28;20844;-73
2022/11/28 10:49:25;;;;;;;31.43;15.17;;;8.00;99.90;;;;;;5047254;28;20467;-73
2022/11/28 10:52:21;;;;;;;27.00;14.85;;;8.00;99.90;;;;;;5008620;28;20415;-73
2022/11/28 10:55:17;;;;;;;25.10;14.30;;;8.00;99.90;;;;;;5029427;28;20497;-73
2022/11/28 10:57:53;;;;;;;26.27;14.75;;;8.00;99.90;;;;;;5048671;28;20417;-73
2022/11/28 11:00:19;;;;;;;25.05;14.25;;;8.10;99.90;;;;;;5029204;28;20901;-73
2022/11/28 11:02:56;;;;;;;26.13;14.20;;;8.00;99.90;;;;;;5037432;28;20416;-73
2022/11/28 11:05:32;;;;;;;27.63;14.10;;;8.00;99.90;;;;;;5002977;28;20507;-73
2022/11/28 11:08:12;;;;;;;23.83;14.10;;;8.00;99.90;;;;;;5027911;28;20817;-73
2022/11/28 11:10:47;;;;;;;25.35;14.00;;;8.00;99.90;;;;;;5039525;28;20420;-73
2022/11/28 11:13:18;;;;;;;25.08;14.25;;;8.10;99.90;;;;;;5047096;28;20813;-73
2022/11/28 11:15:46;;;;;;;23.97;13.30;;;8.10;99.90;;;;;;5003985;28;20442;-73
2022/11/28 11:18:33;;;;;;;24.25;13.57;;;8.10;99.90;;;;;;5027562;28;20419;-73
2022/11/28 11:21:22;;;;;;;21.75;12.63;;;8.10;99.90;;;;;;5045463;28;20767;-73
2022/11/28 11:23:52;;;;;;;26.05;13.88;;;8.10;99.90;;;;;;5002690;28;20426;-73
2022/11/28 11:26:26;;;;;;;24.50;13.55;;;8.10;99.90;;;;;;4999663;28;20409;-73
2022/11/28 11:28:51;;;;;;;22.63;13.70;;;8.10;99.90;;;;;;5047720;28;20489;-73
2022/11/28 11:31:30;;;;;;;23.13;13.87;;;8.10;99.90;;;;;;5044204;28;20488;-73
2022/11/28 11:34:11;;;;;;;23.10;13.77;;;8.10;99.90;;;;;;5044432;28;20413;-73
2022/11/28 11:36:37;;;;;;;21.17;13.07;;;8.10;99.90;;;;;;5037884;28;20872;-73
2022/11/28 11:39:06;;;;;;;21.23;13.32;;;8.10;99.90;;;;;;5033197;28;20403;-73
2022/11/28 11:41:33;;;;;;;21.92;13.10;;;8.20;99.90;;;;;;5027440;28;20762;-73
2022/11/28 11:44:14;;;;;;;20.40;12.98;;;8.10;99.90;;;;;;5039864;28;20499;-74
2022/11/28 11:46:52;;;;;;;22.13;13.52;;;8.20;99.90;;;;;;4993695;28;20518;-73
2022/11/28 11:49:42;;;;;;;23.13;13.65;;;8.20;99.90;;;;;;5018621;28;21021;-73
2022/11/28 11:52:14;;;;;;;21.90;13.38;;;8.20;99.90;;;;;;4994219;28;20925;-73
2022/11/28 11:54:53;;;;;;;21.85;13.68;;;8.20;99.90;;;;;;5028418;28;20836;-73
2022/11/28 11:57:21;;;;;;;23.67;13.13;;;8.20;99.90;;;;;;5010303;28;20743;-73
2022/11/28 11:59:51;;;;;;;16.58;9.00;;;8.20;99.90;;;;;;5027858;28;20455;-73
2022/11/28 12:02:51;;;;;;;16.58;9.18;;;8.20;99.90;;;;;;5034227;28;20455;-73
2022/11/28 12:05:18;;;;;;;16.23;9.20;;;8.20;99.90;;;;;;5028160;28;20937;-73
2022/11/28 12:07:52;;;;;;;18.38;10.75;;;8.20;99.90;;;;;;5046617;28;20420;-72
2022/11/28 12:10:21;;;;;;;17.80;9.35;;;8.20;99.90;;;;;;5023295;28;20465;-73
2022/11/28 12:12:46;;;;;;;16.02;8.80;;;8.20;99.90;;;;;;5032807;28;20415;-73
2022/11/28 12:15:37;;;;;;;16.27;9.13;;;8.20;99.90;;;;;;5026998;28;20434;-73
2022/11/28 12:18:16;;;;;;;17.98;9.73;;;8.20;99.90;;;;;;5039161;28;20541;-73
2022/11/28 12:20:57;;;;;;;16.33;9.20;;;8.30;99.90;;;;;;5023234;28;20432;-73
2022/11/28 12:23:48;;;;;;;20.93;11.57;;;8.20;99.90;;;;;;5032152;28;20931;-73
2022/11/28 12:26:30;;;;;;;21.13;11.40;;;8.20;99.90;;;;;;5017882;28;20406;-73
2022/11/28 12:29:32;;;;;;;20.63;11.40;;;8.30;99.90;;;;;;5046716;28;20425;-73
2022/11/28 12:32:13;;;;;;;20.50;11.55;;;8.30;99.90;;;;;;5010044;28;20419;-73
2022/11/28 12:34:45;;;;;;;19.17;11.57;;;8.30;99.90;;;;;;4996084;28;20460;-73
2022/11/28 12:37:46;;;;;;;21.45;11.45;;;8.30;99.90;;;;;;5023988;28;20442;-73
2022/11/28 12:40:35;;;;;;;21.70;12.20;;;8.30;99.90;;;;;;4975533;28;20807;-73
2022/11/28 12:43:11;;;;;;;28.20;14.20;;;8.30;99.90;;;;;;5029595;28;20915;-73
2022/11/28 12:45:42;;;;;;;24.75;13.40;;;8.30;99.90;;;;;;5026191;28;20422;-74
2022/11/28 12:48:26;;;;;;;23.77;12.97;;;8.30;99.90;;;;;;5029026;28;20927;-73
2022/11/28 12:51:11;;;;;;;25.63;14.30;;;8.30;99.90;;;;;;5023807;28;20979;-73
2022/11/28 12:54:09;;;;;;;29.65;14.98;;;8.30;99.90;;;;;;5032571;28;20812;-73
2022/11/28 12:57:04;;;;;;;30.63;15.13;;;8.30;99.90;;;;;;5027614;28;20946;-73
2022/11/28 13:00:17;;;;;;;26.27;14.50;;;8.30;99.90;;;;;;5002178;28;20446;-73
2022/11/28 13:03:08;;;;;;;26.63;14.80;;;8.30;99.90;;;;;;4969598;28;20508;-73
2022/11/28 13:06:02;;;;;;;25.90;14.35;;;8.30;99.90;;;;;;4967194;28;20448;-73
2022/11/28 13:08:52;;;;;;;26.00;14.77;;;8.30;99.90;;;;;;5009443;28;20419;-73